createdAt,value
2019-04-22T00:00:36.449Z,4.00
2019-04-22T00:04:00.687Z,4.07
2019-04-22T00:07:30.737Z,4.17
2019-04-22T00:10:40.309Z,4.07
2019-04-22T00:14:00.748Z,4.10
2019-04-22T00:17:26.300Z,4.03
2019-04-22T00:20:30.692Z,3.83
2019-04-22T00:23:39.221Z,3.83
2019-04-22T00:26:51.858Z,3.80
2019-04-22T00:33:19.133Z,3.80
2019-04-22T00:36:23.587Z,3.87
2019-04-22T00:42:50.189Z,3.50
2019-04-22T00:45:59.101Z,3.50
2019-04-22T00:49:52.786Z,3.63
2019-04-22T00:52:34.675Z,3.70
2019-04-22T00:59:17.267Z,3.10
2019-04-22T01:05:42.304Z,3.83
2019-04-22T01:08:57.893Z,3.33
2019-04-22T01:12:04.698Z,3.53
2019-04-22T01:15:14.852Z,3.27
2019-04-22T01:18:15.741Z,3.27
2019-04-22T01:21:37.087Z,3.50
2019-04-22T01:24:38.822Z,3.40
2019-04-22T01:27:44.846Z,3.93
2019-04-22T01:30:51.487Z,3.40
2019-04-22T01:34:05.449Z,3.40
2019-04-22T01:37:20.327Z,3.77
2019-04-22T01:40:42.914Z,3.10
2019-04-22T01:43:59.240Z,3.57
2019-04-22T01:47:00.039Z,3.50
2019-04-22T01:50:11.898Z,3.07
2019-04-22T01:53:19.381Z,3.80
2019-04-22T01:56:36.507Z,3.03
2019-04-22T01:59:35.563Z,3.20
2019-04-22T02:03:04.469Z,3.70
2019-04-22T02:06:30.420Z,3.60
2019-04-22T02:09:49.590Z,3.70
2019-04-22T02:13:02.037Z,3.60
2019-04-22T02:16:27.321Z,3.57
2019-04-22T02:19:22.804Z,3.20
2019-04-22T02:22:47.628Z,3.50
2019-04-22T02:25:47.416Z,3.33
2019-04-22T02:28:56.454Z,3.20
2019-04-22T02:32:09.985Z,3.30
2019-04-22T02:35:23.753Z,3.33
2019-04-22T02:38:44.588Z,3.20
2019-04-22T02:41:31.249Z,3.30
2019-04-22T02:44:47.074Z,3.37
2019-04-22T02:47:59.103Z,3.60
2019-04-22T03:00:45.902Z,3.43
2019-04-22T03:04:01.632Z,3.60
2019-04-22T03:07:05.461Z,3.53
2019-04-22T03:10:30.110Z,3.60
2019-04-22T03:13:40.388Z,3.50
2019-04-22T03:17:00.547Z,3.30
2019-04-22T03:23:16.420Z,2.97
2019-04-22T03:26:18.850Z,2.97
2019-04-22T03:33:36.195Z,3.40
2019-04-22T03:45:46.613Z,3.20
2019-04-22T03:49:17.436Z,3.23
2019-04-22T03:52:16.159Z,3.60
2019-04-22T03:55:46.945Z,3.30
2019-04-22T03:58:56.924Z,3.83
2019-04-22T04:02:02.056Z,3.17
2019-04-22T04:05:10.730Z,3.20
2019-04-22T04:08:29.420Z,3.37
2019-04-22T04:11:45.561Z,3.43
2019-04-22T04:14:47.095Z,3.53
2019-04-22T04:30:46.608Z,3.50
2019-04-22T04:33:54.043Z,3.13
2019-04-22T04:37:22.654Z,3.40
2019-04-22T04:40:20.702Z,3.63
2019-04-22T04:43:26.277Z,3.67
2019-04-22T04:46:45.144Z,3.90
2019-04-22T04:53:09.183Z,3.20
2019-04-22T04:56:10.821Z,3.20
2019-04-22T04:59:27.782Z,3.33
2019-04-22T05:02:40.001Z,3.30
2019-04-22T05:15:17.667Z,3.10
2019-04-22T05:21:40.723Z,3.10
2019-04-22T05:24:34.735Z,2.63
2019-04-22T05:27:49.122Z,3.00
2019-04-22T05:31:16.003Z,3.00
2019-04-22T05:34:26.466Z,3.00
2019-04-22T05:37:38.411Z,3.47
2019-04-22T05:40:40.791Z,3.07
2019-04-22T05:43:58.566Z,3.30
2019-04-22T05:47:08.065Z,3.30
2019-04-22T05:50:21.832Z,2.70
2019-04-22T05:53:28.952Z,3.17
2019-04-22T05:56:37.573Z,3.23
2019-04-22T05:59:56.975Z,3.10
2019-04-22T06:06:15.195Z,2.97
2019-04-22T06:09:24.853Z,2.90
2019-04-22T06:12:40.485Z,3.03
2019-04-22T06:15:52.867Z,2.57
2019-04-22T06:19:21.227Z,2.67
2019-04-22T06:22:25.265Z,2.67
2019-04-22T06:25:47.891Z,2.57
2019-04-22T06:28:40.759Z,2.80
2019-04-22T06:32:15.163Z,2.67
2019-04-22T06:35:09.737Z,2.87
2019-04-22T06:38:25.667Z,2.27
2019-04-22T06:41:21.191Z,2.30
2019-04-22T06:44:29.913Z,2.03
2019-04-22T06:47:51.240Z,2.40
2019-04-22T06:54:03.352Z,2.67
2019-04-22T06:57:11.557Z,2.30
2019-04-22T07:00:28.768Z,2.10
2019-04-22T07:03:41.661Z,2.47
2019-04-22T07:06:48.680Z,2.63
2019-04-22T07:10:18.107Z,2.90
2019-04-22T07:13:21.205Z,2.67
2019-04-22T07:16:26.125Z,2.53
2019-04-22T07:19:36.126Z,2.67
2019-04-22T07:22:45.565Z,2.47
2019-04-22T07:25:56.550Z,2.80
2019-04-22T07:29:21.803Z,3.07
2019-04-22T07:32:18.622Z,3.50
2019-04-22T07:35:30.806Z,3.27
2019-04-22T07:38:31.382Z,3.33
2019-04-22T07:41:48.960Z,2.93
2019-04-22T07:44:54.859Z,2.87
2019-04-22T07:48:22.256Z,3.40
2019-04-22T07:51:32.912Z,3.30
2019-04-22T07:54:29.195Z,3.40
2019-04-22T07:57:39.575Z,3.27
2019-04-22T08:00:53.583Z,3.73
2019-04-22T08:04:13.135Z,4.00
2019-04-22T08:07:18.069Z,4.17
2019-04-22T08:13:31.141Z,4.07
2019-04-22T08:16:43.864Z,4.00
2019-04-22T08:19:59.255Z,4.50
2019-04-22T08:23:04.831Z,4.50
2019-04-22T08:26:13.233Z,4.70
2019-04-22T08:29:26.601Z,4.77
2019-04-22T08:32:34.520Z,4.37
2019-04-22T08:36:03.288Z,4.87
2019-04-22T08:39:03.848Z,4.00
2019-04-22T08:42:05.031Z,4.43
2019-04-22T08:45:14.359Z,4.10
2019-04-22T08:48:24.869Z,4.00
2019-04-22T08:51:49.412Z,3.60
2019-04-22T08:55:04.080Z,4.00
2019-04-22T09:01:11.643Z,3.23
2019-04-22T09:04:11.949Z,4.10
2019-04-22T09:07:30.274Z,3.20
2019-04-22T09:13:50.640Z,3.40
2019-04-22T09:17:02.358Z,3.40
2019-04-22T09:23:32.247Z,3.33
2019-04-22T09:26:41.931Z,3.40
2019-04-22T09:29:53.226Z,2.90
2019-04-22T09:33:06.319Z,3.00
2019-04-22T09:36:16.748Z,2.90
2019-04-22T09:39:23.083Z,3.20
2019-04-22T09:42:34.723Z,3.20
2019-04-22T09:45:43.333Z,2.93
2019-04-22T09:49:00.313Z,2.67
2019-04-22T09:52:08.434Z,2.67
2019-04-22T09:58:27.454Z,2.67
2019-04-22T10:01:38.909Z,3.17
2019-04-22T10:04:48.390Z,3.00
2019-04-22T10:07:59.600Z,3.00
2019-04-22T10:11:14.329Z,2.97
2019-04-22T10:14:23.871Z,2.70
2019-04-22T10:17:27.635Z,2.63
2019-04-22T10:20:38.112Z,2.70
2019-04-22T10:23:53.408Z,2.70
2019-04-22T10:27:00.022Z,2.50
2019-04-22T10:30:15.001Z,2.60
2019-04-22T10:33:36.274Z,2.30
2019-04-22T10:36:31.069Z,2.43
2019-04-22T10:39:52.787Z,2.70
2019-04-22T10:42:53.836Z,2.33
2019-04-22T10:46:03.972Z,2.60
2019-04-22T10:49:12.817Z,2.30
2019-04-22T10:52:21.669Z,2.40
2019-04-22T10:55:31.799Z,2.40
2019-04-22T11:09:18.350Z,2.43
2019-04-22T11:12:31.980Z,2.27
2019-04-22T11:15:40.550Z,2.70
2019-04-22T11:18:49.591Z,2.97
2019-04-22T11:22:07.746Z,2.60
2019-04-22T11:25:09.845Z,2.70
2019-04-22T11:28:56.037Z,2.50
2019-04-22T11:32:06.312Z,2.33
2019-04-22T11:35:16.160Z,2.30
2019-04-22T11:38:24.978Z,2.27
2019-04-22T11:41:33.915Z,2.60
2019-04-22T11:44:43.237Z,2.33
2019-04-22T11:48:11.206Z,2.50
2019-04-22T11:51:20.034Z,2.53
2019-04-22T11:54:28.983Z,2.97
2019-04-22T11:57:39.094Z,2.50
2019-04-22T12:00:49.358Z,2.13
2019-04-22T12:03:58.251Z,2.70
2019-04-22T12:07:08.683Z,2.60
2019-04-22T12:10:29.841Z,2.20
2019-04-22T12:13:39.949Z,2.00
2019-04-22T12:16:49.759Z,2.50
2019-04-22T12:20:20.207Z,2.20
2019-04-22T12:23:29.996Z,2.03
2019-04-22T12:26:40.060Z,2.00
2019-04-22T12:29:49.088Z,2.50
2019-04-22T12:32:58.140Z,2.40
2019-04-22T12:36:28.587Z,2.03
2019-04-22T12:39:37.414Z,2.20
2019-04-22T12:42:47.184Z,2.30
2019-04-22T12:45:56.327Z,2.30
2019-04-22T12:49:16.338Z,2.10
2019-04-22T12:52:35.219Z,2.20
2019-04-22T12:55:35.317Z,2.50
2019-04-22T12:58:45.571Z,2.20
2019-04-22T13:01:55.190Z,2.03
2019-04-22T13:05:05.841Z,2.57
2019-04-22T13:08:15.803Z,2.67
2019-04-22T13:11:30.266Z,2.50
2019-04-22T13:14:35.037Z,2.63
2019-04-22T13:17:44.339Z,2.90
2019-04-22T13:21:04.585Z,2.27
2019-04-22T13:24:13.410Z,2.53
2019-04-22T13:27:22.081Z,1.97
2019-04-22T13:30:32.583Z,2.27
2019-04-22T13:33:43.039Z,2.27
2019-04-22T13:36:52.879Z,2.43
2019-04-22T13:40:03.416Z,2.43
2019-04-22T13:43:13.233Z,2.10
2019-04-22T13:46:22.017Z,2.10
2019-04-22T13:50:11.633Z,2.23
2019-04-22T13:53:26.216Z,2.40
2019-04-22T13:56:15.369Z,2.20
2019-04-22T13:59:13.599Z,2.20
2019-04-22T14:02:36.814Z,1.90
2019-04-22T14:05:46.767Z,2.00
2019-04-22T14:08:55.738Z,2.13
2019-04-22T14:12:09.391Z,1.80
2019-04-22T14:15:18.041Z,2.10
2019-04-22T14:18:26.828Z,1.80
2019-04-22T14:21:36.827Z,1.90
2019-04-22T14:24:46.710Z,1.60
2019-04-22T14:28:01.986Z,2.00
2019-04-22T14:31:06.656Z,1.90
2019-04-22T14:34:16.828Z,1.90
2019-04-22T14:37:25.571Z,1.70
2019-04-22T14:40:35.139Z,2.17
2019-04-22T14:45:07.166Z,2.00
2019-04-22T14:47:19.627Z,1.97
2019-04-22T14:50:29.316Z,1.90
2019-04-22T14:53:35.229Z,2.10
2019-04-22T14:56:26.526Z,1.97
2019-04-22T14:59:35.780Z,2.03
2019-04-22T15:03:11.839Z,2.07
2019-04-22T15:06:22.300Z,2.50
2019-04-22T15:09:44.330Z,1.93
2019-04-22T15:12:56.572Z,2.40
2019-04-22T15:16:23.627Z,2.20
2019-04-22T15:19:43.512Z,1.83
2019-04-22T15:23:10.818Z,1.80
2019-04-22T15:26:20.329Z,2.00
2019-04-22T15:29:29.660Z,2.30
2019-04-22T15:32:57.244Z,2.07
2019-04-22T15:36:07.651Z,1.80
2019-04-22T15:39:17.276Z,2.37
2019-04-22T15:42:30.523Z,2.00
2019-04-22T15:45:39.050Z,2.10
2019-04-22T15:48:48.498Z,2.10
2019-04-22T15:52:16.539Z,1.87
2019-04-22T15:55:27.135Z,2.00
2019-04-22T15:58:37.667Z,1.50
2019-04-22T16:01:46.810Z,1.80
2019-04-22T16:04:56.886Z,1.90
2019-04-22T16:08:06.761Z,1.70
2019-04-22T16:11:15.940Z,1.60
2019-04-22T16:14:32.831Z,1.70
2019-04-22T16:17:35.123Z,1.50
2019-04-22T16:20:44.007Z,1.93
2019-04-22T16:24:11.290Z,1.50
2019-04-22T16:27:24.699Z,1.50
2019-04-22T16:30:33.423Z,1.40
2019-04-22T16:33:43.694Z,1.40
2019-04-22T16:36:52.500Z,1.60
2019-04-22T16:40:03.052Z,1.63
2019-04-22T16:43:13.505Z,1.50
2019-04-22T16:46:23.466Z,1.60
2019-04-22T16:49:47.883Z,1.70
2019-04-22T16:52:57.810Z,1.33
2019-04-22T16:56:06.974Z,1.50
2019-04-22T16:59:16.876Z,1.67
2019-04-22T17:02:54.596Z,1.73
2019-04-22T17:06:27.655Z,1.40
2019-04-22T17:09:37.532Z,2.00
2019-04-22T17:12:53.898Z,1.60
2019-04-22T17:16:07.403Z,1.70
2019-04-22T17:19:15.346Z,1.67
2019-04-22T17:22:24.090Z,1.70
2019-04-22T17:25:34.184Z,1.27
2019-04-22T17:28:43.825Z,1.90
2019-04-22T17:32:13.246Z,1.83
2019-04-22T17:35:28.361Z,2.03
2019-04-22T17:38:45.435Z,1.80
2019-04-22T17:42:03.347Z,1.87
2019-04-22T17:45:37.070Z,2.40
2019-04-22T17:48:59.402Z,1.87
2019-04-22T17:52:54.853Z,1.90
2019-04-22T17:56:02.118Z,1.90
2019-04-22T17:59:10.201Z,2.10
2019-04-22T18:02:15.387Z,1.97
2019-04-22T18:05:13.093Z,1.90
2019-04-22T18:08:44.199Z,2.40
2019-04-22T18:11:51.268Z,1.93
2019-04-22T18:15:04.065Z,2.17
2019-04-22T18:18:19.004Z,2.37
2019-04-22T18:21:25.617Z,2.10
2019-04-22T18:24:26.448Z,2.00
2019-04-22T18:30:55.963Z,3.43
2019-04-22T18:34:03.488Z,2.30
2019-04-22T18:37:14.319Z,2.03
2019-04-22T18:40:30.938Z,1.93
2019-04-22T18:43:42.468Z,2.17
2019-04-22T18:46:50.918Z,2.47
2019-04-22T18:49:55.020Z,2.43
2019-04-22T18:53:51.890Z,2.10
2019-04-22T18:56:58.440Z,2.10
2019-04-22T18:59:55.521Z,2.03
2019-04-22T19:14:44.156Z,2.23
2019-04-22T19:17:47.289Z,2.13
2019-04-22T19:20:59.183Z,2.00
2019-04-22T19:24:01.427Z,2.07
2019-04-22T19:27:11.017Z,2.07
2019-04-22T19:30:21.916Z,2.13
2019-04-22T19:33:35.274Z,2.03
2019-04-22T19:36:46.286Z,2.10
2019-04-22T19:40:03.354Z,2.20
2019-04-22T19:43:02.416Z,2.17
2019-04-22T19:46:15.267Z,2.17
2019-04-22T19:49:33.264Z,2.10
2019-04-22T19:52:51.363Z,2.60
2019-04-22T19:56:01.467Z,2.00
2019-04-22T19:59:11.746Z,2.10
2019-04-22T20:03:03.603Z,1.70
2019-04-22T20:06:36.765Z,2.10
2019-04-22T20:09:47.839Z,2.30
2019-04-22T20:12:55.771Z,2.13
2019-04-22T20:15:56.141Z,2.30
2019-04-22T20:19:19.267Z,2.10
2019-04-22T20:22:23.335Z,2.40
2019-04-22T20:25:38.062Z,2.27
2019-04-22T20:28:51.274Z,2.07
2019-04-22T20:31:59.300Z,2.17
2019-04-22T20:35:09.378Z,2.33
2019-04-22T20:38:18.282Z,2.00
2019-04-22T20:41:30.293Z,2.30
2019-04-22T20:44:43.359Z,2.40
2019-04-22T20:47:47.940Z,2.27
2019-04-22T20:50:58.162Z,2.83
2019-04-22T20:54:12.128Z,2.50
2019-04-22T20:57:29.512Z,2.50
2019-04-22T21:00:28.079Z,2.30
2019-04-22T21:03:45.709Z,2.60
2019-04-22T21:07:05.071Z,2.57
2019-04-22T21:10:16.931Z,2.73
2019-04-22T21:13:35.070Z,2.90
2019-04-22T21:16:54.647Z,2.20
2019-04-22T21:20:10.009Z,2.60
2019-04-22T21:23:09.867Z,2.40
2019-04-22T21:26:19.521Z,2.40
2019-04-22T21:29:32.019Z,2.90
2019-04-22T21:33:11.396Z,2.90
2019-04-22T21:36:42.996Z,3.10
2019-04-22T21:39:44.839Z,3.17
2019-04-22T21:43:01.713Z,3.40
2019-04-22T21:46:11.805Z,3.23
2019-04-22T21:49:24.532Z,3.33
2019-04-22T21:52:28.108Z,3.03
2019-04-22T21:55:43.757Z,3.10
2019-04-22T21:59:03.403Z,3.40
2019-04-22T22:02:28.080Z,3.37
2019-04-22T22:05:42.380Z,3.43
2019-04-22T22:09:04.061Z,3.63
2019-04-22T22:12:02.660Z,3.50
2019-04-22T22:15:20.996Z,3.20
2019-04-22T22:18:25.311Z,3.10
2019-04-22T22:21:49.638Z,3.30
2019-04-22T22:25:01.421Z,3.50
2019-04-22T22:28:29.418Z,2.83
2019-04-22T22:31:29.452Z,3.37
2019-04-22T22:34:34.738Z,3.47
2019-04-22T22:37:37.514Z,3.53
2019-04-22T22:40:36.744Z,3.30
2019-04-22T22:43:49.086Z,3.37
2019-04-22T22:47:10.134Z,3.10
2019-04-22T22:50:25.991Z,3.00
2019-04-22T22:54:06.313Z,3.23
2019-04-22T22:57:11.996Z,3.30
2019-04-22T23:00:06.317Z,3.40
2019-04-22T23:03:41.643Z,3.47
2019-04-22T23:06:32.761Z,3.63
2019-04-22T23:09:38.740Z,3.63
2019-04-22T23:13:08.462Z,3.50
2019-04-22T23:15:52.564Z,3.10
2019-04-22T23:19:05.141Z,3.57
2019-04-22T23:22:21.973Z,3.50
2019-04-22T23:25:53.599Z,3.70
2019-04-22T23:28:58.939Z,3.53
2019-04-22T23:32:09.183Z,3.60
2019-04-22T23:35:36.657Z,3.70
2019-04-22T23:38:54.842Z,4.00
2019-04-22T23:42:06.434Z,3.73
2019-04-22T23:45:09.302Z,3.63
2019-04-22T23:48:15.164Z,3.53
2019-04-22T23:51:29.649Z,4.10
2019-04-22T23:54:53.851Z,3.93
2019-04-22T23:58:03.519Z,3.37
